sensor_id;sensor_type;location;lat;lon;timestamp;pressure;altitude;pressure_sealevel;temperature;humidity
40794;BME280;26502;51.886;15.604;2022-08-20T00:01:56;100266.84;;;21.60;70.42
40794;BME280;26502;51.886;15.604;2022-08-20T00:07:04;100262.99;;;21.50;70.83
40794;BME280;26502;51.886;15.604;2022-08-20T00:12:10;100258.70;;;21.47;70.63
40794;BME280;26502;51.886;15.604;2022-08-20T00:17:42;100255.66;;;21.27;71.03
40794;BME280;26502;51.886;15.604;2022-08-20T00:22:53;100256.30;;;21.17;71.27
40794;BME280;26502;51.886;15.604;2022-08-20T00:28:02;100257.04;;;21.13;71.80
40794;BME280;26502;51.886;15.604;2022-08-20T00:33:15;100255.70;;;21.16;71.92
40794;BME280;26502;51.886;15.604;2022-08-20T00:38:23;100254.86;;;21.22;72.02
40794;BME280;26502;51.886;15.604;2022-08-20T00:43:31;100260.85;;;21.26;72.05
40794;BME280;26502;51.886;15.604;2022-08-20T00:48:41;100258.17;;;21.21;72.21
40794;BME280;26502;51.886;15.604;2022-08-20T00:53:49;100270.27;;;21.30;72.36
40794;BME280;26502;51.886;15.604;2022-08-20T00:58:56;100268.77;;;21.43;72.24
40794;BME280;26502;51.886;15.604;2022-08-20T01:04:03;100274.25;;;21.45;72.06
40794;BME280;26502;51.886;15.604;2022-08-20T01:09:11;100282.36;;;21.52;72.21
40794;BME280;26502;51.886;15.604;2022-08-20T01:14:19;100280.52;;;21.56;71.99
40794;BME280;26502;51.886;15.604;2022-08-20T01:19:44;100291.17;;;21.56;72.16
40794;BME280;26502;51.886;15.604;2022-08-20T01:25:00;100302.02;;;21.65;72.32
40794;BME280;26502;51.886;15.604;2022-08-20T01:30:12;100309.52;;;21.85;72.09
40794;BME280;26502;51.886;15.604;2022-08-20T01:35:21;100306.38;;;21.96;71.95
40794;BME280;26502;51.886;15.604;2022-08-20T01:40:51;100302.06;;;21.94;71.79
40794;BME280;26502;51.886;15.604;2022-08-20T01:46:01;100289.42;;;21.86;71.79
40794;BME280;26502;51.886;15.604;2022-08-20T01:51:12;100287.79;;;21.77;71.92
40794;BME280;26502;51.886;15.604;2022-08-20T01:56:22;100286.49;;;21.71;72.00
40794;BME280;26502;51.886;15.604;2022-08-20T02:01:32;100284.92;;;21.66;71.93
40794;BME280;26502;51.886;15.604;2022-08-20T02:06:42;100283.70;;;21.76;72.14
40794;BME280;26502;51.886;15.604;2022-08-20T02:12:13;100269.22;;;21.66;71.92
40794;BME280;26502;51.886;15.604;2022-08-20T02:17:23;100267.20;;;21.55;72.20
40794;BME280;26502;51.886;15.604;2022-08-20T02:22:39;100263.74;;;21.65;72.35
40794;BME280;26502;51.886;15.604;2022-08-20T02:27:50;100265.54;;;21.77;72.42
40794;BME280;26502;51.886;15.604;2022-08-20T02:32:58;100271.10;;;21.92;72.27
40794;BME280;26502;51.886;15.604;2022-08-20T02:38:05;100266.30;;;21.96;72.04
40794;BME280;26502;51.886;15.604;2022-08-20T02:43:13;100248.27;;;21.93;72.17
40794;BME280;26502;51.886;15.604;2022-08-20T02:48:22;100242.50;;;21.95;72.04
40794;BME280;26502;51.886;15.604;2022-08-20T02:53:31;100235.60;;;21.81;72.13
40794;BME280;26502;51.886;15.604;2022-08-20T02:58:40;100236.50;;;21.77;72.26
40794;BME280;26502;51.886;15.604;2022-08-20T03:03:47;100241.17;;;21.83;72.17
40794;BME280;26502;51.886;15.604;2022-08-20T03:08:58;100220.63;;;21.70;72.24
40794;BME280;26502;51.886;15.604;2022-08-20T03:14:06;100215.55;;;21.74;72.24
40794;BME280;26502;51.886;15.604;2022-08-20T03:19:14;100215.44;;;21.74;72.36
40794;BME280;26502;51.886;15.604;2022-08-20T03:24:22;100219.71;;;21.74;72.32
40794;BME280;26502;51.886;15.604;2022-08-20T03:29:29;100237.04;;;21.79;72.46
40794;BME280;26502;51.886;15.604;2022-08-20T03:34:36;100239.07;;;21.80;72.40
40794;BME280;26502;51.886;15.604;2022-08-20T03:39:43;100231.63;;;21.72;72.49
40794;BME280;26502;51.886;15.604;2022-08-20T03:44:50;100234.11;;;21.73;72.70
40794;BME280;26502;51.886;15.604;2022-08-20T03:50:00;100233.65;;;21.76;72.42
40794;BME280;26502;51.886;15.604;2022-08-20T03:55:09;100218.39;;;21.64;72.55
40794;BME280;26502;51.886;15.604;2022-08-20T04:00:21;100215.73;;;21.44;72.35
40794;BME280;26502;51.886;15.604;2022-08-20T04:05:29;100208.27;;;21.17;73.11
40794;BME280;26502;51.886;15.604;2022-08-20T04:10:37;100211.98;;;21.18;73.51
40794;BME280;26502;51.886;15.604;2022-08-20T04:15:44;100214.49;;;21.29;73.48
40794;BME280;26502;51.886;15.604;2022-08-20T04:20:52;100210.31;;;21.47;73.61
40794;BME280;26502;51.886;15.604;2022-08-20T04:26:00;100212.73;;;21.57;73.29
40794;BME280;26502;51.886;15.604;2022-08-20T04:31:10;100211.69;;;21.61;73.14
40794;BME280;26502;51.886;15.604;2022-08-20T04:36:18;100214.20;;;21.61;73.01
40794;BME280;26502;51.886;15.604;2022-08-20T04:41:25;100228.02;;;21.57;73.09
40794;BME280;26502;51.886;15.604;2022-08-20T04:46:32;100232.34;;;21.68;73.21
40794;BME280;26502;51.886;15.604;2022-08-20T04:51:40;100233.27;;;21.74;73.05
40794;BME280;26502;51.886;15.604;2022-08-20T04:56:47;100239.01;;;21.75;72.95
40794;BME280;26502;51.886;15.604;2022-08-20T05:01:54;100250.30;;;21.63;73.15
40794;BME280;26502;51.886;15.604;2022-08-20T05:07:01;100255.25;;;21.56;73.17
40794;BME280;26502;51.886;15.604;2022-08-20T05:12:10;100260.55;;;21.66;73.38
40794;BME280;26502;51.886;15.604;2022-08-20T05:17:22;100259.07;;;21.81;73.45
40794;BME280;26502;51.886;15.604;2022-08-20T05:22:29;100270.17;;;21.80;73.19
40794;BME280;26502;51.886;15.604;2022-08-20T05:27:37;100274.69;;;21.85;73.42
40794;BME280;26502;51.886;15.604;2022-08-20T05:32:51;100273.92;;;22.06;73.42
40794;BME280;26502;51.886;15.604;2022-08-20T05:37:58;100270.23;;;22.21;73.15
40794;BME280;26502;51.886;15.604;2022-08-20T05:43:05;100274.35;;;22.30;73.01
40794;BME280;26502;51.886;15.604;2022-08-20T05:48:16;100267.51;;;22.32;72.86
40794;BME280;26502;51.886;15.604;2022-08-20T05:53:25;100272.52;;;22.26;72.88
40794;BME280;26502;51.886;15.604;2022-08-20T05:58:32;100281.79;;;22.42;72.94
40794;BME280;26502;51.886;15.604;2022-08-20T06:03:39;100290.55;;;22.48;72.96
40794;BME280;26502;51.886;15.604;2022-08-20T06:09:05;100294.31;;;22.50;72.68
40794;BME280;26502;51.886;15.604;2022-08-20T06:14:12;100295.83;;;22.45;72.76
40794;BME280;26502;51.886;15.604;2022-08-20T06:19:24;100291.96;;;22.48;72.85
40794;BME280;26502;51.886;15.604;2022-08-20T06:24:31;100294.54;;;22.56;72.65
40794;BME280;26502;51.886;15.604;2022-08-20T06:29:38;100296.42;;;22.55;72.58
40794;BME280;26502;51.886;15.604;2022-08-20T06:34:46;100293.45;;;22.60;72.66
40794;BME280;26502;51.886;15.604;2022-08-20T06:39:54;100295.16;;;22.75;72.87
40794;BME280;26502;51.886;15.604;2022-08-20T06:45:01;100296.96;;;22.93;72.51
40794;BME280;26502;51.886;15.604;2022-08-20T06:50:12;100301.15;;;22.99;72.10
40794;BME280;26502;51.886;15.604;2022-08-20T06:55:20;100300.66;;;22.99;72.04
40794;BME280;26502;51.886;15.604;2022-08-20T07:00:29;100293.73;;;23.19;72.16
40794;BME280;26502;51.886;15.604;2022-08-20T07:05:39;100287.75;;;23.22;71.75
40794;BME280;26502;51.886;15.604;2022-08-20T07:10:47;100278.39;;;23.26;71.70
40794;BME280;26502;51.886;15.604;2022-08-20T07:15:54;100281.54;;;23.24;71.52
40794;BME280;26502;51.886;15.604;2022-08-20T07:21:02;100281.77;;;23.37;71.53
40794;BME280;26502;51.886;15.604;2022-08-20T07:26:10;100267.69;;;23.56;71.29
40794;BME280;26502;51.886;15.604;2022-08-20T07:31:15;100267.88;;;23.50;70.82
40794;BME280;26502;51.886;15.604;2022-08-20T07:36:40;100267.77;;;23.42;71.17
40794;BME280;26502;51.886;15.604;2022-08-20T07:41:48;100272.93;;;23.48;71.01
40794;BME280;26502;51.886;15.604;2022-08-20T07:47:07;100275.67;;;23.66;70.82
40794;BME280;26502;51.886;15.604;2022-08-20T07:52:15;100283.02;;;23.69;70.56
40794;BME280;26502;51.886;15.604;2022-08-20T07:57:23;100285.50;;;23.71;70.34
40794;BME280;26502;51.886;15.604;2022-08-20T08:02:30;100289.65;;;23.75;70.62
40794;BME280;26502;51.886;15.604;2022-08-20T08:07:38;100300.84;;;23.82;70.45
40794;BME280;26502;51.886;15.604;2022-08-20T08:12:49;100302.23;;;23.84;70.09
40794;BME280;26502;51.886;15.604;2022-08-20T08:18:00;100303.61;;;23.87;70.00
40794;BME280;26502;51.886;15.604;2022-08-20T08:23:11;100304.16;;;23.89;69.78
40794;BME280;26502;51.886;15.604;2022-08-20T08:28:19;100303.92;;;23.92;69.67
40794;BME280;26502;51.886;15.604;2022-08-20T08:33:28;100305.62;;;23.98;69.70
40794;BME280;26502;51.886;15.604;2022-08-20T08:38:38;100301.73;;;24.07;69.52
40794;BME280;26502;51.886;15.604;2022-08-20T08:43:50;100304.84;;;23.84;69.12
40794;BME280;26502;51.886;15.604;2022-08-20T08:49:00;100305.23;;;23.73;69.71
40794;BME280;26502;51.886;15.604;2022-08-20T08:54:09;100299.59;;;23.89;69.78
40794;BME280;26502;51.886;15.604;2022-08-20T08:59:21;100296.16;;;24.11;69.66
40794;BME280;26502;51.886;15.604;2022-08-20T09:04:29;100294.46;;;24.56;69.38
40794;BME280;26502;51.886;15.604;2022-08-20T09:09:41;100298.57;;;24.94;68.86
40794;BME280;26502;51.886;15.604;2022-08-20T09:14:50;100303.23;;;25.03;68.17
40794;BME280;26502;51.886;15.604;2022-08-20T09:19:56;100310.85;;;24.79;67.43
40794;BME280;26502;51.886;15.604;2022-08-20T09:25:05;100308.96;;;24.77;67.51
40794;BME280;26502;51.886;15.604;2022-08-20T09:30:14;100311.13;;;25.00;67.56
40794;BME280;26502;51.886;15.604;2022-08-20T09:35:22;100312.27;;;25.07;67.20
40794;BME280;26502;51.886;15.604;2022-08-20T09:40:29;100315.36;;;24.75;66.77
40794;BME280;26502;51.886;15.604;2022-08-20T09:45:37;100318.35;;;24.38;66.96
40794;BME280;26502;51.886;15.604;2022-08-20T09:50:46;100314.95;;;24.15;67.21
40794;BME280;26502;51.886;15.604;2022-08-20T09:55:56;100316.09;;;24.20;67.34
40794;BME280;26502;51.886;15.604;2022-08-20T10:01:08;100314.25;;;24.30;67.33
40794;BME280;26502;51.886;15.604;2022-08-20T10:06:16;100305.52;;;24.17;67.33
40794;BME280;26502;51.886;15.604;2022-08-20T10:12:17;100304.81;;;24.12;67.34
40794;BME280;26502;51.886;15.604;2022-08-20T10:17:24;100302.63;;;24.17;67.50
40794;BME280;26502;51.886;15.604;2022-08-20T10:22:32;100300.83;;;24.28;67.60
40794;BME280;26502;51.886;15.604;2022-08-20T10:27:39;100308.05;;;24.51;67.51
40794;BME280;26502;51.886;15.604;2022-08-20T10:32:49;100316.14;;;24.71;67.43
40794;BME280;26502;51.886;15.604;2022-08-20T10:37:56;100317.77;;;24.84;67.01
40794;BME280;26502;51.886;15.604;2022-08-20T10:43:03;100322.57;;;24.76;66.80
40794;BME280;26502;51.886;15.604;2022-08-20T10:48:11;100318.33;;;24.69;66.84
40794;BME280;26502;51.886;15.604;2022-08-20T10:53:18;100312.53;;;24.85;66.80
40794;BME280;26502;51.886;15.604;2022-08-20T10:58:25;100310.63;;;25.03;66.43
40794;BME280;26502;51.886;15.604;2022-08-20T11:03:31;100314.42;;;25.10;66.12
40794;BME280;26502;51.886;15.604;2022-08-20T11:08:38;100316.09;;;24.97;65.94
40794;BME280;26502;51.886;15.604;2022-08-20T11:13:44;100309.10;;;25.04;66.08
40794;BME280;26502;51.886;15.604;2022-08-20T11:18:52;100310.47;;;25.17;65.89
40794;BME280;26502;51.886;15.604;2022-08-20T11:23:59;100319.16;;;25.14;65.67
40794;BME280;26502;51.886;15.604;2022-08-20T11:29:07;100320.57;;;24.90;65.57
40794;BME280;26502;51.886;15.604;2022-08-20T11:34:14;100320.59;;;24.75;65.75
40794;BME280;26502;51.886;15.604;2022-08-20T11:39:22;100318.54;;;24.65;65.73
40794;BME280;26502;51.886;15.604;2022-08-20T11:44:29;100315.17;;;24.70;66.08
40794;BME280;26502;51.886;15.604;2022-08-20T11:49:37;100310.41;;;24.76;65.96
40794;BME280;26502;51.886;15.604;2022-08-20T11:54:44;100305.61;;;24.82;65.85
40794;BME280;26502;51.886;15.604;2022-08-20T11:59:53;100308.69;;;25.06;65.99
40794;BME280;26502;51.886;15.604;2022-08-20T12:05:01;100313.11;;;25.09;65.21
40794;BME280;26502;51.886;15.604;2022-08-20T12:10:09;100314.93;;;24.81;65.31
40794;BME280;26502;51.886;15.604;2022-08-20T12:15:17;100314.02;;;24.70;65.31
40794;BME280;26502;51.886;15.604;2022-08-20T12:20:25;100314.13;;;24.64;65.28
40794;BME280;26502;51.886;15.604;2022-08-20T12:25:33;100310.95;;;24.23;65.63
40794;BME280;26502;51.886;15.604;2022-08-20T12:30:41;100318.91;;;23.84;66.23
40794;BME280;26502;51.886;15.604;2022-08-20T12:35:48;100324.86;;;23.63;66.85
40794;BME280;26502;51.886;15.604;2022-08-20T12:40:56;100322.58;;;23.43;67.47
40794;BME280;26502;51.886;15.604;2022-08-20T12:46:03;100326.25;;;23.22;68.00
40794;BME280;26502;51.886;15.604;2022-08-20T12:51:10;100325.20;;;23.06;68.74
40794;BME280;26502;51.886;15.604;2022-08-20T12:56:18;100330.89;;;22.84;68.89
40794;BME280;26502;51.886;15.604;2022-08-20T13:01:26;100328.54;;;22.64;69.69
40794;BME280;26502;51.886;15.604;2022-08-20T13:06:33;100315.23;;;22.57;69.97
40794;BME280;26502;51.886;15.604;2022-08-20T13:11:40;100322.44;;;22.43;70.42
40794;BME280;26502;51.886;15.604;2022-08-20T13:16:48;100325.67;;;22.31;70.96
40794;BME280;26502;51.886;15.604;2022-08-20T13:22:00;100329.55;;;22.42;71.44
40794;BME280;26502;51.886;15.604;2022-08-20T13:27:09;100322.90;;;22.48;71.43
40794;BME280;26502;51.886;15.604;2022-08-20T13:32:17;100321.27;;;22.54;71.63
40794;BME280;26502;51.886;15.604;2022-08-20T13:37:24;100335.23;;;22.54;71.91
40794;BME280;26502;51.886;15.604;2022-08-20T13:42:32;100333.41;;;22.67;72.12
40794;BME280;26502;51.886;15.604;2022-08-20T13:47:40;100326.23;;;22.96;72.17
40794;BME280;26502;51.886;15.604;2022-08-20T13:52:48;100324.16;;;23.42;72.05
40794;BME280;26502;51.886;15.604;2022-08-20T13:57:56;100321.17;;;23.50;71.82
40794;BME280;26502;51.886;15.604;2022-08-20T14:03:05;100316.08;;;23.58;71.40
40794;BME280;26502;51.886;15.604;2022-08-20T14:08:17;100305.49;;;23.36;71.33
40794;BME280;26502;51.886;15.604;2022-08-20T14:13:25;100309.83;;;23.24;71.55
40794;BME280;26502;51.886;15.604;2022-08-20T14:18:33;100313.45;;;23.28;71.38
40794;BME280;26502;51.886;15.604;2022-08-20T14:23:40;100334.68;;;23.13;71.29
40794;BME280;26502;51.886;15.604;2022-08-20T14:28:48;100351.02;;;23.02;71.45
40794;BME280;26502;51.886;15.604;2022-08-20T14:33:55;100358.86;;;22.96;71.42
40794;BME280;26502;51.886;15.604;2022-08-20T14:39:02;100372.66;;;23.02;71.46
40794;BME280;26502;51.886;15.604;2022-08-20T14:44:09;100373.16;;;22.94;71.21
40794;BME280;26502;51.886;15.604;2022-08-20T14:49:16;100371.50;;;22.78;71.38
40794;BME280;26502;51.886;15.604;2022-08-20T14:54:23;100379.71;;;22.73;71.30
40794;BME280;26502;51.886;15.604;2022-08-20T14:59:30;100379.00;;;22.65;71.26
40794;BME280;26502;51.886;15.604;2022-08-20T15:04:39;100377.73;;;22.58;71.34
40794;BME280;26502;51.886;15.604;2022-08-20T15:09:48;100378.22;;;22.55;71.46
40794;BME280;26502;51.886;15.604;2022-08-20T15:14:55;100372.06;;;22.53;71.16
40794;BME280;26502;51.886;15.604;2022-08-20T15:20:06;100372.59;;;22.45;71.36
40794;BME280;26502;51.886;15.604;2022-08-20T15:25:16;100376.69;;;22.46;71.18
40794;BME280;26502;51.886;15.604;2022-08-20T15:30:24;100378.75;;;22.43;70.98
40794;BME280;26502;51.886;15.604;2022-08-20T15:35:32;100385.32;;;22.38;70.93
40794;BME280;26502;51.886;15.604;2022-08-20T15:40:38;100388.44;;;22.48;71.08
40794;BME280;26502;51.886;15.604;2022-08-20T15:45:45;100397.20;;;22.55;70.59
40794;BME280;26502;51.886;15.604;2022-08-20T15:51:00;100394.20;;;22.52;70.67
40794;BME280;26502;51.886;15.604;2022-08-20T15:56:17;100393.13;;;22.71;70.46
40794;BME280;26502;51.886;15.604;2022-08-20T16:01:37;100403.65;;;22.64;70.14
40794;BME280;26502;51.886;15.604;2022-08-20T16:06:53;100409.65;;;22.66;70.14
40794;BME280;26502;51.886;15.604;2022-08-20T16:12:09;100408.20;;;22.56;69.75
40794;BME280;26502;51.886;15.604;2022-08-20T16:17:27;100412.61;;;22.45;69.67
40794;BME280;26502;51.886;15.604;2022-08-20T16:22:40;100417.52;;;22.31;69.32
40794;BME280;26502;51.886;15.604;2022-08-20T16:27:53;100420.83;;;22.18;69.08
40794;BME280;26502;51.886;15.604;2022-08-20T16:33:13;100414.45;;;22.12;69.18
40794;BME280;26502;51.886;15.604;2022-08-20T16:38:34;100413.25;;;22.09;69.20
40794;BME280;26502;51.886;15.604;2022-08-20T16:43:48;100420.35;;;22.15;69.18
40794;BME280;26502;51.886;15.604;2022-08-20T16:48:58;100430.15;;;22.12;69.16
40794;BME280;26502;51.886;15.604;2022-08-20T16:54:10;100431.00;;;21.98;68.93
40794;BME280;26502;51.886;15.604;2022-08-20T16:59:19;100431.73;;;21.87;69.33
40794;BME280;26502;51.886;15.604;2022-08-20T17:04:26;100439.73;;;21.78;69.33
40794;BME280;26502;51.886;15.604;2022-08-20T17:09:37;100445.78;;;21.66;69.60
40794;BME280;26502;51.886;15.604;2022-08-20T17:14:50;100448.73;;;21.50;69.59
40794;BME280;26502;51.886;15.604;2022-08-20T17:19:59;100440.31;;;21.49;70.09
40794;BME280;26502;51.886;15.604;2022-08-20T17:25:16;100440.30;;;21.58;70.18
40794;BME280;26502;51.886;15.604;2022-08-20T17:30:33;100440.16;;;21.48;70.16
40794;BME280;26502;51.886;15.604;2022-08-20T17:35:47;100448.17;;;21.38;70.45
40794;BME280;26502;51.886;15.604;2022-08-20T17:41:01;100456.23;;;21.30;70.60
40794;BME280;26502;51.886;15.604;2022-08-20T17:46:15;100468.56;;;21.18;70.70
40794;BME280;26502;51.886;15.604;2022-08-20T17:51:24;100473.43;;;21.16;71.19
40794;BME280;26502;51.886;15.604;2022-08-20T17:56:36;100481.48;;;21.15;71.19
40794;BME280;26502;51.886;15.604;2022-08-20T18:01:45;100487.23;;;21.22;71.64
40794;BME280;26502;51.886;15.604;2022-08-20T18:06:59;100495.09;;;21.30;71.53
40794;BME280;26502;51.886;15.604;2022-08-20T18:12:14;100499.71;;;21.24;71.50
40794;BME280;26502;51.886;15.604;2022-08-20T18:17:53;100503.23;;;21.35;71.62
40794;BME280;26502;51.886;15.604;2022-08-20T18:23:09;100509.11;;;21.17;71.58
40794;BME280;26502;51.886;15.604;2022-08-20T18:28:20;100518.48;;;21.04;71.72
40794;BME280;26502;51.886;15.604;2022-08-20T18:33:33;100518.11;;;20.85;71.98
40794;BME280;26502;51.886;15.604;2022-08-20T18:38:42;100520.29;;;20.81;72.13
40794;BME280;26502;51.886;15.604;2022-08-20T18:44:10;100526.66;;;20.75;72.51
40794;BME280;26502;51.886;15.604;2022-08-20T18:49:28;100529.48;;;20.64;72.58
40794;BME280;26502;51.886;15.604;2022-08-20T18:54:36;100536.38;;;20.59;72.80
40794;BME280;26502;51.886;15.604;2022-08-20T18:59:43;100534.08;;;20.44;73.01
40794;BME280;26502;51.886;15.604;2022-08-20T19:04:54;100531.61;;;20.48;73.46
40794;BME280;26502;51.886;15.604;2022-08-20T19:10:14;100529.75;;;20.44;73.44
40794;BME280;26502;51.886;15.604;2022-08-20T19:15:26;100534.79;;;20.42;73.54
40794;BME280;26502;51.886;15.604;2022-08-20T19:20:36;100534.20;;;20.30;73.70
40794;BME280;26502;51.886;15.604;2022-08-20T19:25:59;100536.30;;;20.22;73.87
40794;BME280;26502;51.886;15.604;2022-08-20T19:31:12;100536.20;;;20.23;74.29
40794;BME280;26502;51.886;15.604;2022-08-20T19:36:23;100534.73;;;20.21;74.25
40794;BME280;26502;51.886;15.604;2022-08-20T19:41:44;100531.41;;;20.17;74.25
40794;BME280;26502;51.886;15.604;2022-08-20T19:46:54;100527.77;;;20.08;74.34
40794;BME280;26502;51.886;15.604;2022-08-20T19:52:10;100529.79;;;20.02;74.60
40794;BME280;26502;51.886;15.604;2022-08-20T19:57:20;100530.37;;;20.00;74.52
40794;BME280;26502;51.886;15.604;2022-08-20T20:02:30;100532.07;;;19.89;74.74
40794;BME280;26502;51.886;15.604;2022-08-20T20:07:41;100533.45;;;19.90;74.90
40794;BME280;26502;51.886;15.604;2022-08-20T20:12:48;100532.20;;;19.90;75.10
40794;BME280;26502;51.886;15.604;2022-08-20T20:17:56;100533.73;;;19.91;75.02
40794;BME280;26502;51.886;15.604;2022-08-20T20:23:16;100532.23;;;19.86;75.01
40794;BME280;26502;51.886;15.604;2022-08-20T20:28:27;100533.32;;;19.81;75.05
40794;BME280;26502;51.886;15.604;2022-08-20T20:33:38;100534.58;;;19.71;75.00
40794;BME280;26502;51.886;15.604;2022-08-20T20:38:56;100535.50;;;19.68;75.16
40794;BME280;26502;51.886;15.604;2022-08-20T20:44:14;100526.28;;;19.54;75.08
40794;BME280;26502;51.886;15.604;2022-08-20T20:49:26;100521.95;;;19.37;75.27
40794;BME280;26502;51.886;15.604;2022-08-20T20:54:41;100519.23;;;19.24;75.26
40794;BME280;26502;51.886;15.604;2022-08-20T20:59:49;100511.61;;;19.25;75.37
40794;BME280;26502;51.886;15.604;2022-08-20T21:04:57;100509.96;;;19.15;75.31
40794;BME280;26502;51.886;15.604;2022-08-20T21:10:05;100504.25;;;19.07;75.25
40794;BME280;26502;51.886;15.604;2022-08-20T21:15:12;100502.33;;;19.04;75.16
40794;BME280;26502;51.886;15.604;2022-08-20T21:20:20;100503.09;;;19.06;75.21
40794;BME280;26502;51.886;15.604;2022-08-20T21:25:28;100505.07;;;19.03;75.01
40794;BME280;26502;51.886;15.604;2022-08-20T21:30:38;100509.64;;;18.99;75.11
40794;BME280;26502;51.886;15.604;2022-08-20T21:35:45;100511.67;;;18.94;75.29
40794;BME280;26502;51.886;15.604;2022-08-20T21:40:52;100516.92;;;18.88;75.39
40794;BME280;26502;51.886;15.604;2022-08-20T21:45:59;100518.34;;;18.80;75.48
40794;BME280;26502;51.886;15.604;2022-08-20T21:51:07;100519.99;;;18.77;75.51
40794;BME280;26502;51.886;15.604;2022-08-20T21:56:15;100528.42;;;18.67;75.37
40794;BME280;26502;51.886;15.604;2022-08-20T22:01:21;100528.33;;;18.60;75.32
40794;BME280;26502;51.886;15.604;2022-08-20T22:06:30;100525.85;;;18.52;75.04
40794;BME280;26502;51.886;15.604;2022-08-20T22:11:38;100523.42;;;18.37;74.74
40794;BME280;26502;51.886;15.604;2022-08-20T22:16:45;100521.31;;;18.31;74.74
40794;BME280;26502;51.886;15.604;2022-08-20T22:21:54;100514.09;;;18.18;74.50
40794;BME280;26502;51.886;15.604;2022-08-20T22:27:02;100505.61;;;18.02;74.61
40794;BME280;26502;51.886;15.604;2022-08-20T22:32:09;100503.59;;;17.95;74.66
40794;BME280;26502;51.886;15.604;2022-08-20T22:37:17;100497.13;;;17.92;74.95
40794;BME280;26502;51.886;15.604;2022-08-20T22:42:24;100494.17;;;17.88;75.17
40794;BME280;26502;51.886;15.604;2022-08-20T22:47:36;100498.43;;;17.91;75.47
40794;BME280;26502;51.886;15.604;2022-08-20T22:52:43;100509.35;;;18.00;75.62
40794;BME280;26502;51.886;15.604;2022-08-20T22:57:50;100514.33;;;18.07;75.59
40794;BME280;26502;51.886;15.604;2022-08-20T23:02:58;100520.70;;;18.11;75.70
40794;BME280;26502;51.886;15.604;2022-08-20T23:08:07;100518.67;;;18.19;75.77
40794;BME280;26502;51.886;15.604;2022-08-20T23:13:12;100505.78;;;18.27;75.68
40794;BME280;26502;51.886;15.604;2022-08-20T23:18:20;100504.93;;;18.29;75.77
40794;BME280;26502;51.886;15.604;2022-08-20T23:23:27;100502.30;;;18.33;75.61
40794;BME280;26502;51.886;15.604;2022-08-20T23:28:37;100504.23;;;18.39;75.51
40794;BME280;26502;51.886;15.604;2022-08-20T23:33:44;100511.36;;;18.40;75.37
40794;BME280;26502;51.886;15.604;2022-08-20T23:38:51;100517.00;;;18.42;75.31
40794;BME280;26502;51.886;15.604;2022-08-20T23:43:59;100517.91;;;18.39;75.39
40794;BME280;26502;51.886;15.604;2022-08-20T23:49:07;100515.69;;;18.40;75.39
40794;BME280;26502;51.886;15.604;2022-08-20T23:54:13;100518.32;;;18.36;75.58
40794;BME280;26502;51.886;15.604;2022-08-20T23:59:20;100521.44;;;18.21;75.71
